Time;durP1;ratioP1;P1;durP2;ratioP2;P2;SDS_P1;SDS_P2;PMS_P1;PMS_P2;Temp;Humidity;BMP_temperature;BMP_pressure;BME280_temperature;BME280_humidity;BME280_pressure;Samples;Min_cycle;Max_cycle;Signal;HPM_P1;HPM_P2
2021/11/29 00:01:14;;;;;;;;;;;;;;;3.40;100.00;98513.41;5072999;28;19931;-74
2021/11/29 00:03:41;;;;;;;;;;;;;;;3.23;100.00;98507.78;5072015;28;20437;-74
2021/11/29 00:06:09;;;;;;;;;;;;;;;3.48;100.00;98514.22;5073220;28;20345;-74
2021/11/29 00:08:36;;;;;;;;;;;;;;;3.55;100.00;98509.50;5073142;28;19925;-74
2021/11/29 00:11:05;;;;;;;;;;;;;;;4.03;100.00;98509.22;5073301;28;19966;-74
2021/11/29 00:13:32;;;;;;;;;;;;;;;3.73;100.00;98507.56;5073108;28;19925;-74
2021/11/29 00:16:00;;;;;;;;;;;;;;;3.06;100.00;98503.78;5071585;28;20299;-74
2021/11/29 00:18:27;;;;;;;;;;;;;;;2.95;100.00;98515.97;5072864;28;20299;-74
2021/11/29 00:20:54;;;;;;;;;;;;;;;3.07;100.00;98512.88;5073213;28;19932;-75
2021/11/29 00:23:22;;;;;;;;;;;;;;;3.33;100.00;98518.13;5105177;28;20376;-74
2021/11/29 00:25:49;;;;;;;;;;;;;;;3.21;100.00;98522.00;5073190;28;19964;-74
2021/11/29 00:28:16;;;;;;;;;;;;;;;3.21;100.00;98526.75;5072899;28;19931;-73
2021/11/29 00:30:45;;;;;;;;;;;;;;;3.22;100.00;98531.06;5072526;28;19924;-75
2021/11/29 00:33:13;;;;;;;;;;;;;;;3.23;100.00;98527.13;5072866;28;19931;-74
2021/11/29 00:35:40;;;;;;;;;;;;;;;3.20;100.00;98525.94;5072685;28;20367;-74
2021/11/29 00:38:10;;;;;;;;;;;;;;;2.98;100.00;98529.00;5072667;28;19928;-74
2021/11/29 00:40:39;;;;;;;;;;;;;;;2.93;100.00;98523.81;5072861;28;19931;-74
2021/11/29 00:43:31;;;;;;;;;;;;;;;3.14;100.00;98527.50;5072560;28;19931;-74
2021/11/29 00:45:58;;;;;;;;;;;;;;;3.07;100.00;98523.91;5071756;28;20319;-74
2021/11/29 00:48:26;;;;;;;;;;;;;;;3.18;100.00;98527.50;5072715;28;19970;-74
2021/11/29 00:50:53;;;;;;;;;;;;;;;3.57;100.00;98536.75;5072803;28;19932;-74
2021/11/29 00:53:21;;;;;;;;;;;;;;;3.74;100.00;98524.97;5072768;28;19944;-76
2021/11/29 00:55:48;;;;;;;;;;;;;;;3.56;100.00;98526.84;5070793;28;19928;-76
2021/11/29 00:58:15;;;;;;;;;;;;;;;3.21;100.00;98533.03;5070779;28;19932;-75
2021/11/29 01:00:42;;;;;;;;;;;;;;;2.97;100.00;98539.22;5072550;28;19975;-75
2021/11/29 01:03:09;;;;;;;;;;;;;;;3.07;100.00;98537.72;5072684;28;19925;-75
2021/11/29 01:05:37;;;;;;;;;;;;;;;3.37;100.00;98541.00;5072532;28;19925;-75
2021/11/29 01:08:04;;;;;;;;;;;;;;;3.76;100.00;98536.38;5072489;28;20024;-76
2021/11/29 01:10:31;;;;;;;;;;;;;;;3.24;100.00;98535.03;5072524;28;19925;-75
2021/11/29 01:12:59;;;;;;;;;;;;;;;3.08;100.00;98542.03;5072236;28;19933;-75
2021/11/29 01:15:28;;;;;;;;;;;;;;;3.13;100.00;98541.69;5071325;28;19924;-76
2021/11/29 01:17:55;;;;;;;;;;;;;;;3.49;100.00;98544.22;5071302;28;19974;-76
2021/11/29 01:20:22;;;;;;;;;;;;;;;3.14;100.00;98538.53;5072445;28;20333;-76
2021/11/29 01:22:49;;;;;;;;;;;;;;;3.00;100.00;98549.50;5072328;28;19955;-76
2021/11/29 01:25:16;;;;;;;;;;;;;;;3.24;100.00;98550.81;5072884;28;19924;-76
2021/11/29 01:27:44;;;;;;;;;;;;;;;3.13;100.00;98548.00;5072113;28;19924;-76
2021/11/29 01:30:11;;;;;;;;;;;;;;;3.62;100.00;98550.16;5072556;28;20378;-76
2021/11/29 01:32:38;;;;;;;;;;;;;;;3.32;100.00;98560.69;5071208;28;20043;-76
2021/11/29 01:35:06;;;;;;;;;;;;;;;3.08;100.00;98553.06;5072367;28;19931;-76
2021/11/29 01:37:35;;;;;;;;;;;;;;;3.26;100.00;98559.47;5072126;28;19925;-76
2021/11/29 01:40:06;;;;;;;;;;;;;;;3.56;100.00;98566.31;5072178;28;19963;-76
2021/11/29 01:42:34;;;;;;;;;;;;;;;3.45;100.00;98561.94;5072054;28;19924;-76
2021/11/29 01:45:01;;;;;;;;;;;;;;;2.95;100.00;98566.44;5075824;28;19935;-76
2021/11/29 01:47:28;;;;;;;;;;;;;;;2.97;100.00;98564.06;5074765;28;19935;-76
2021/11/29 01:49:55;;;;;;;;;;;;;;;3.18;100.00;98560.66;5075740;28;19925;-73
2021/11/29 01:52:22;;;;;;;;;;;;;;;2.93;100.00;98554.97;5108297;28;19931;-76
2021/11/29 01:54:50;;;;;;;;;;;;;;;3.11;100.00;98550.34;5075853;28;19924;-76
2021/11/29 01:57:17;;;;;;;;;;;;;;;2.42;100.00;98545.16;5075521;28;19931;-76
2021/11/29 01:59:44;;;;;;;;;;;;;;;1.68;100.00;98548.00;5074406;28;19973;-76
2021/11/29 02:02:12;;;;;;;;;;;;;;;1.50;100.00;98557.25;5057913;28;19924;-76
2021/11/29 02:04:40;;;;;;;;;;;;;;;1.96;100.00;98557.72;5074206;28;19932;-76
2021/11/29 02:07:09;;;;;;;;;;;;;;;2.11;100.00;98562.19;5075477;28;20015;-76
2021/11/29 02:09:36;;;;;;;;;;;;;;;1.96;100.00;98561.28;5075388;28;20022;-76
2021/11/29 02:12:03;;;;;;;;;;;;;;;2.27;100.00;98577.34;5075171;28;19931;-76
2021/11/29 02:14:31;;;;;;;;;;;;;;;2.25;100.00;98567.84;5075401;28;19925;-76
2021/11/29 02:16:59;;;;;;;;;;;;;;;2.46;100.00;98568.84;5075280;28;19928;-76
2021/11/29 02:19:26;;;;;;;;;;;;;;;2.43;100.00;98582.56;5107714;28;20372;-76
2021/11/29 02:21:53;;;;;;;;;;;;;;;1.98;100.00;98580.19;5075272;28;19924;-76
2021/11/29 02:24:20;;;;;;;;;;;;;;;1.82;100.00;98578.47;5091030;28;19925;-76
2021/11/29 02:26:48;;;;;;;;;;;;;;;2.23;100.00;98582.00;5074936;28;19924;-75
2021/11/29 02:29:16;;;;;;;;;;;;;;;2.40;100.00;98586.09;5073905;28;19928;-76
2021/11/29 02:31:44;;;;;;;;;;;;;;;1.95;100.00;98589.22;5074916;28;19931;-75
2021/11/29 02:34:15;;;;;;;;;;;;;;;2.30;100.00;98592.31;5075002;28;19925;-76
2021/11/29 02:36:43;;;;;;;;;;;;;;;2.37;100.00;98597.88;5093922;28;19925;-73
2021/11/29 02:39:11;;;;;;;;;;;;;;;2.92;100.00;98603.06;5053359;28;19924;-73
2021/11/29 02:41:39;;;;;;;;;;;;;;;3.23;100.00;98596.94;5054976;28;19931;-73
2021/11/29 02:44:07;;;;;;;;;;;;;;;3.17;100.00;98605.97;5086972;28;19924;-75
2021/11/29 02:46:34;;;;;;;;;;;;;;;3.21;100.00;98606.81;5053581;28;20329;-75
2021/11/29 02:49:03;;;;;;;;;;;;;;;3.28;100.00;98602.13;5054648;28;19928;-75
2021/11/29 02:51:30;;;;;;;;;;;;;;;3.27;100.00;98596.97;5053563;28;20016;-75
2021/11/29 02:54:03;;;;;;;;;;;;;;;2.97;100.00;98597.19;5053327;28;19931;-75
2021/11/29 02:56:31;;;;;;;;;;;;;;;2.44;100.00;98595.22;5054692;28;19928;-75
2021/11/29 02:58:58;;;;;;;;;;;;;;;2.38;100.00;98593.97;5053276;28;19931;-75
2021/11/29 03:01:25;;;;;;;;;;;;;;;1.88;100.00;98597.41;5054719;28;20025;-75
2021/11/29 03:03:53;;;;;;;;;;;;;;;2.94;100.00;98602.69;5054383;28;19932;-75
2021/11/29 03:06:20;;;;;;;;;;;;;;;2.24;100.00;98602.13;5053204;28;19928;-75
2021/11/29 03:08:48;;;;;;;;;;;;;;;2.17;100.00;98605.59;5054147;28;20019;-75
2021/11/29 03:11:15;;;;;;;;;;;;;;;2.86;100.00;98607.34;5053125;28;20372;-75
2021/11/29 03:13:43;;;;;;;;;;;;;;;3.08;100.00;98600.00;5054346;28;19999;-75
2021/11/29 03:16:10;;;;;;;;;;;;;;;3.09;100.00;98593.31;5086402;28;20383;-75
2021/11/29 03:18:40;;;;;;;;;;;;;;;3.19;100.00;98600.88;5054213;28;19932;-75
2021/11/29 03:21:08;;;;;;;;;;;;;;;2.71;100.00;98596.63;5053288;28;20405;-75
2021/11/29 03:23:36;;;;;;;;;;;;;;;3.09;100.00;98598.84;5071079;28;19935;-76
2021/11/29 03:26:07;;;;;;;;;;;;;;;2.95;100.00;98598.75;5072543;28;20023;-76
2021/11/29 03:28:38;;;;;;;;;;;;;;;2.71;100.00;98599.38;5072421;28;19929;-75
2021/11/29 03:31:06;;;;;;;;;;;;;;;2.74;100.00;98598.59;5072381;28;20431;-76
2021/11/29 03:33:34;;;;;;;;;;;;;;;2.39;100.00;98601.06;5070601;28;19924;-75
2021/11/29 03:36:02;;;;;;;;;;;;;;;2.34;100.00;98601.41;5072112;28;20311;-75
2021/11/29 03:38:29;;;;;;;;;;;;;;;2.60;100.00;98601.25;5070536;28;19954;-75
2021/11/29 03:40:56;;;;;;;;;;;;;;;2.77;100.00;98597.84;5070981;28;19928;-76
2021/11/29 03:43:23;;;;;;;;;;;;;;;3.07;100.00;98602.00;5049144;28;19974;-75
2021/11/29 03:45:50;;;;;;;;;;;;;;;2.36;100.00;98607.34;5072088;28;19928;-75
2021/11/29 03:48:18;;;;;;;;;;;;;;;3.12;100.00;98611.88;5054171;28;19993;-75
2021/11/29 03:50:45;;;;;;;;;;;;;;;2.58;100.00;98615.41;5089011;28;20384;-76
2021/11/29 03:53:12;;;;;;;;;;;;;;;3.12;100.00;98620.16;5073117;28;19924;-74
2021/11/29 03:55:39;;;;;;;;;;;;;;;3.04;100.00;98613.00;5073683;28;20019;-75
2021/11/29 03:58:06;;;;;;;;;;;;;;;3.32;100.00;98604.88;5073551;28;19924;-76
2021/11/29 04:00:33;;;;;;;;;;;;;;;3.32;100.00;98616.72;5072053;28;19985;-76
2021/11/29 04:03:00;;;;;;;;;;;;;;;3.15;100.00;98622.16;5073367;28;19974;-76
2021/11/29 04:05:27;;;;;;;;;;;;;;;3.37;100.00;98612.78;5073020;28;20019;-76
2021/11/29 04:07:54;;;;;;;;;;;;;;;3.57;100.00;98617.63;5072946;28;20338;-76
2021/11/29 04:10:21;;;;;;;;;;;;;;;3.30;100.00;98615.53;5072091;28;19925;-76
2021/11/29 04:12:57;;;;;;;;;;;;;;;3.58;100.00;98623.94;5072218;28;19932;-76
2021/11/29 04:15:26;;;;;;;;;;;;;;;3.77;100.00;98620.88;5071963;28;20380;-76
2021/11/29 04:17:57;;;;;;;;;;;;;;;3.74;100.00;98624.44;5072293;28;19928;-76
2021/11/29 04:20:25;;;;;;;;;;;;;;;3.92;100.00;98628.03;5071832;28;20043;-74
2021/11/29 04:22:52;;;;;;;;;;;;;;;3.93;100.00;98628.81;5072996;28;19931;-76
2021/11/29 04:25:21;;;;;;;;;;;;;;;3.82;100.00;98617.72;5073170;28;19985;-74
2021/11/29 04:27:48;;;;;;;;;;;;;;;3.82;100.00;98622.47;5064281;28;20242;-76
2021/11/29 04:30:19;;;;;;;;;;;;;;;3.35;100.00;98620.66;5051877;28;19925;-76
2021/11/29 04:32:47;;;;;;;;;;;;;;;3.42;100.00;98627.03;5052793;28;19925;-76
2021/11/29 04:35:15;;;;;;;;;;;;;;;3.59;100.00;98625.53;5052772;28;19990;-76
2021/11/29 04:37:42;;;;;;;;;;;;;;;3.53;100.00;98621.53;5052818;28;20388;-75
2021/11/29 04:40:09;;;;;;;;;;;;;;;3.49;100.00;98626.28;5035048;28;20030;-75
2021/11/29 04:42:36;;;;;;;;;;;;;;;3.22;100.00;98630.47;5052927;28;19925;-75
2021/11/29 04:45:04;;;;;;;;;;;;;;;2.83;100.00;98626.66;5052887;28;20011;-76
2021/11/29 04:47:31;;;;;;;;;;;;;;;3.10;100.00;98628.03;5052748;28;19929;-75
2021/11/29 04:49:58;;;;;;;;;;;;;;;3.15;100.00;98627.66;5052537;28;20422;-76
2021/11/29 04:52:25;;;;;;;;;;;;;;;3.15;100.00;98633.19;5052713;28;19979;-76
2021/11/29 04:54:52;;;;;;;;;;;;;;;3.10;100.00;98630.78;5052807;28;19931;-75
2021/11/29 04:57:19;;;;;;;;;;;;;;;3.04;100.00;98633.13;5051605;28;19925;-76
2021/11/29 04:59:46;;;;;;;;;;;;;;;3.06;100.00;98641.03;5052657;28;19925;-76
2021/11/29 05:02:13;;;;;;;;;;;;;;;3.04;100.00;98640.59;5052574;28;19971;-75
2021/11/29 05:04:45;;;;;;;;;;;;;;;3.03;100.00;98641.78;5052407;28;20422;-76
2021/11/29 05:07:13;;;;;;;;;;;;;;;3.09;100.00;98646.53;5052708;28;19931;-75
2021/11/29 05:09:42;;;;;;;;;;;;;;;2.80;100.00;98643.97;5034830;28;19928;-76
2021/11/29 05:12:10;;;;;;;;;;;;;;;2.93;100.00;98639.72;5052606;28;19960;-76
2021/11/29 05:15:45;;;;;;;;;;;;;;;2.50;100.00;98655.13;5090597;28;19939;-74
2021/11/29 05:18:13;;;;;;;;;;;;;;;2.42;100.00;98650.75;5089225;28;19928;-74
2021/11/29 05:20:39;;;;;;;;;;;;;;;2.50;100.00;98657.88;5089012;28;19974;-74
2021/11/29 05:23:07;;;;;;;;;;;;;;;2.60;100.00;98657.22;5089378;28;20007;-75
2021/11/29 05:25:35;;;;;;;;;;;;;;;2.55;100.00;98654.78;5089279;28;19993;-74
2021/11/29 05:28:02;;;;;;;;;;;;;;;2.57;100.00;98660.72;5089238;28;20015;-74
2021/11/29 05:30:29;;;;;;;;;;;;;;;2.53;100.00;98650.84;5090281;28;19964;-75
2021/11/29 05:32:56;;;;;;;;;;;;;;;2.60;100.00;98653.66;5090096;28;19925;-75
2021/11/29 05:35:24;;;;;;;;;;;;;;;2.38;100.00;98649.13;5090125;28;20022;-75
2021/11/29 05:37:51;;;;;;;;;;;;;;;2.23;100.00;98658.44;5090249;28;19924;-75
2021/11/29 05:40:19;;;;;;;;;;;;;;;2.06;100.00;98659.03;5090151;28;19931;-74
2021/11/29 05:42:46;;;;;;;;;;;;;;;2.09;100.00;98666.53;5072090;28;19928;-74
2021/11/29 05:45:14;;;;;;;;;;;;;;;2.38;100.00;98665.66;5090094;28;19925;-75
2021/11/29 05:47:42;;;;;;;;;;;;;;;2.52;100.00;98666.59;5088526;28;19932;-75
2021/11/29 05:50:10;;;;;;;;;;;;;;;2.63;100.00;98661.97;5090058;28;20404;-75
2021/11/29 05:52:37;;;;;;;;;;;;;;;2.61;100.00;98664.31;5089942;28;19936;-75
2021/11/29 05:55:06;;;;;;;;;;;;;;;2.78;100.00;98662.88;5089768;28;19947;-75
2021/11/29 05:58:01;;;;;;;;;;;;;;;3.04;100.00;98665.44;5088440;28;19925;-75
2021/11/29 06:00:28;;;;;;;;;;;;;;;2.87;100.00;98671.59;5088488;28;19924;-75
2021/11/29 06:02:55;;;;;;;;;;;;;;;2.87;100.00;98680.69;5089430;28;20015;-74
2021/11/29 06:05:24;;;;;;;;;;;;;;;2.89;100.00;98670.03;5088499;28;19971;-75
2021/11/29 06:07:51;;;;;;;;;;;;;;;2.57;100.00;98666.25;5089660;28;19950;-75
2021/11/29 06:10:18;;;;;;;;;;;;;;;2.69;100.00;98670.66;5089579;28;19925;-75
2021/11/29 06:12:46;;;;;;;;;;;;;;;2.61;100.00;98669.00;5089498;28;20022;-75
2021/11/29 06:15:14;;;;;;;;;;;;;;;2.92;100.00;98671.25;5071058;28;20016;-75
2021/11/29 06:17:42;;;;;;;;;;;;;;;3.20;100.00;98674.22;5089265;28;19924;-75
2021/11/29 06:20:10;;;;;;;;;;;;;;;3.16;100.00;98670.66;5089419;28;19970;-75
2021/11/29 06:22:37;;;;;;;;;;;;;;;3.11;100.00;98666.28;5088153;28;20390;-74
2021/11/29 06:25:04;;;;;;;;;;;;;;;3.06;100.00;98671.38;5086297;28;20014;-74
2021/11/29 06:27:31;;;;;;;;;;;;;;;3.13;100.00;98676.94;5075547;28;19925;-74
2021/11/29 06:29:58;;;;;;;;;;;;;;;3.06;100.00;98669.41;5075704;28;20358;-75
2021/11/29 06:32:25;;;;;;;;;;;;;;;2.59;100.00;98682.41;5075658;28;19925;-75
2021/11/29 06:34:52;;;;;;;;;;;;;;;2.39;100.00;98678.28;5075797;28;20054;-75
2021/11/29 06:37:19;;;;;;;;;;;;;;;2.95;100.00;98692.59;5074338;28;19925;-74
2021/11/29 06:39:46;;;;;;;;;;;;;;;3.10;100.00;98686.00;5074441;28;19924;-74
2021/11/29 06:42:13;;;;;;;;;;;;;;;2.79;100.00;98686.50;5074335;28;19925;-75
2021/11/29 06:44:40;;;;;;;;;;;;;;;2.89;100.00;98691.34;5075369;28;20021;-75
2021/11/29 06:47:08;;;;;;;;;;;;;;;2.83;100.00;98688.13;5073974;28;20379;-75
2021/11/29 06:49:35;;;;;;;;;;;;;;;2.54;100.00;98682.75;5075438;28;19925;-74
2021/11/29 06:52:02;;;;;;;;;;;;;;;2.66;100.00;98685.22;5075369;28;19925;-75
2021/11/29 06:54:32;;;;;;;;;;;;;;;2.37;100.00;98683.38;5074025;28;20011;-75
2021/11/29 06:57:00;;;;;;;;;;;;;;;2.72;100.00;98683.69;5075436;28;19928;-74
2021/11/29 06:59:28;;;;;;;;;;;;;;;2.77;100.00;98689.66;5075136;28;20015;-74
2021/11/29 07:01:55;;;;;;;;;;;;;;;2.70;100.00;98683.28;5074940;28;19945;-75
2021/11/29 07:04:22;;;;;;;;;;;;;;;2.70;100.00;98689.59;5073128;28;19978;-74
2021/11/29 07:06:51;;;;;;;;;;;;;;;2.66;100.00;98699.03;5073762;28;20467;-74
2021/11/29 07:09:18;;;;;;;;;;;;;;;2.51;100.00;98697.28;5073765;28;19925;-74
2021/11/29 07:11:46;;;;;;;;;;;;;;;1.92;100.00;98697.41;5074996;28;19970;-74
2021/11/29 07:14:13;;;;;;;;;;;;;;;1.79;100.00;98705.94;5056925;28;19929;-74
2021/11/29 07:16:47;;;;;;;;;;;;;;;1.84;100.00;98708.38;5074679;28;19924;-74
2021/11/29 07:19:14;;;;;;;;;;;;;;;0.89;100.00;98710.91;5073515;28;20009;-74
2021/11/29 07:21:42;;;;;;;;;;;;;;;1.65;100.00;98711.25;5074415;28;20387;-74
2021/11/29 07:24:09;;;;;;;;;;;;;;;2.03;100.00;98709.38;5074662;28;20317;-75
2021/11/29 07:26:39;;;;;;;;;;;;;;;2.07;100.00;98710.19;5074968;28;20020;-74
2021/11/29 07:29:06;;;;;;;;;;;;;;;2.06;100.00;98703.13;5053174;28;19939;-75
2021/11/29 07:31:33;;;;;;;;;;;;;;;1.17;100.00;98712.13;5035836;28;19979;-74
2021/11/29 07:34:01;;;;;;;;;;;;;;;1.23;100.00;98718.91;5053640;28;20016;-74
2021/11/29 07:36:28;;;;;;;;;;;;;;;1.25;100.00;98721.28;5068973;28;20486;-74
2021/11/29 07:38:55;;;;;;;;;;;;;;;1.92;100.00;98723.78;5051684;28;19925;-74
2021/11/29 07:41:23;;;;;;;;;;;;;;;1.39;100.00;98718.75;5053693;28;19931;-75
2021/11/29 07:43:50;;;;;;;;;;;;;;;1.86;100.00;98719.78;5053466;28;20027;-75
2021/11/29 07:46:18;;;;;;;;;;;;;;;2.29;100.00;98717.56;5053778;28;19928;-75
2021/11/29 07:48:45;;;;;;;;;;;;;;;2.26;100.00;98718.31;5053171;28;19948;-75
2021/11/29 07:51:12;;;;;;;;;;;;;;;2.30;100.00;98719.13;5052669;28;19925;-74
2021/11/29 07:53:39;;;;;;;;;;;;;;;2.04;100.00;98719.22;5052362;28;20338;-74
2021/11/29 07:56:06;;;;;;;;;;;;;;;2.24;100.00;98726.97;5053970;28;20011;-75
2021/11/29 07:58:33;;;;;;;;;;;;;;;1.80;100.00;98732.31;5055326;28;20019;-74
2021/11/29 08:01:01;;;;;;;;;;;;;;;1.87;100.00;98734.38;5067695;28;19928;-74
2021/11/29 08:03:29;;;;;;;;;;;;;;;2.45;100.00;98742.94;5050670;28;20015;-74
2021/11/29 08:05:56;;;;;;;;;;;;;;;1.83;100.00;98734.31;5053050;28;19967;-74
2021/11/29 08:08:23;;;;;;;;;;;;;;;1.76;100.00;98741.69;5071942;28;19935;-74
2021/11/29 08:10:50;;;;;;;;;;;;;;;2.26;100.00;98740.38;5073254;28;19970;-74
2021/11/29 08:13:17;;;;;;;;;;;;;;;2.38;100.00;98737.34;5072753;28;19936;-75
2021/11/29 08:15:44;;;;;;;;;;;;;;;2.61;100.00;98738.78;5073037;28;20027;-75
2021/11/29 08:18:12;;;;;;;;;;;;;;;2.87;100.00;98737.84;5073083;28;19956;-75
2021/11/29 08:20:40;;;;;;;;;;;;;;;2.91;100.00;98736.69;5072919;28;19928;-74
2021/11/29 08:23:10;;;;;;;;;;;;;;;2.64;100.00;98734.44;5055430;28;19924;-75
2021/11/29 08:25:40;;;;;;;;;;;;;;;2.86;100.00;98739.03;5068379;28;19929;-74
2021/11/29 08:28:11;;;;;;;;;;;;;;;2.61;100.00;98741.53;5052479;28;19932;-74
2021/11/29 08:30:39;;;;;;;;;;;;;;;2.77;100.00;98744.84;5051550;28;19950;-74
2021/11/29 08:33:07;;;;;;;;;;;;;;;2.33;100.00;98741.25;5051549;28;19964;-75
2021/11/29 08:35:34;;;;;;;;;;;;;;;2.71;100.00;98737.31;5052640;28;19978;-75
2021/11/29 08:38:02;;;;;;;;;;;;;;;2.79;100.00;98741.69;5069641;28;20461;-74
2021/11/29 08:40:32;;;;;;;;;;;;;;;2.95;100.00;98740.28;5071385;28;19924;-75
2021/11/29 08:44:03;;;;;;;;;;;;;;;3.00;100.00;98745.44;5110250;27;19916;-76
2021/11/29 08:46:32;;;;;;;;;;;;;;;2.77;100.00;98744.84;5109788;28;20030;-75
2021/11/29 08:48:59;;;;;;;;;;;;;;;2.87;100.00;98748.88;5109612;28;19924;-76
2021/11/29 08:51:27;;;;;;;;;;;;;;;3.23;100.00;98756.28;5107841;28;19977;-76
2021/11/29 08:53:54;;;;;;;;;;;;;;;3.04;100.00;98756.53;5091840;28;20411;-76
2021/11/29 08:56:21;;;;;;;;;;;;;;;3.16;100.00;98767.28;5110238;28;20398;-76
2021/11/29 08:58:48;;;;;;;;;;;;;;;3.04;100.00;98768.38;5110601;28;20291;-76
2021/11/29 09:01:16;;;;;;;;;;;;;;;2.57;100.00;98770.25;5075730;28;20286;-76
2021/11/29 09:03:43;;;;;;;;;;;;;;;2.88;100.00;98783.56;5110416;28;20371;-76
2021/11/29 09:06:10;;;;;;;;;;;;;;;3.08;100.00;98787.72;5110815;28;20394;-76
2021/11/29 09:08:38;;;;;;;;;;;;;;;2.95;100.00;98778.94;5092209;28;20367;-76
2021/11/29 09:11:05;;;;;;;;;;;;;;;3.55;100.00;98771.13;5091962;28;19931;-76
2021/11/29 09:13:40;;;;;;;;;;;;;;;3.93;100.00;98772.56;5092361;28;19927;-76
2021/11/29 09:16:08;;;;;;;;;;;;;;;4.07;100.00;98778.97;5110288;28;20001;-76
2021/11/29 09:18:35;;;;;;;;;;;;;;;3.75;100.00;98777.97;5093994;28;20208;-77
2021/11/29 09:21:03;;;;;;;;;;;;;;;3.73;100.00;98774.81;5099196;28;20383;-77
2021/11/29 09:23:31;;;;;;;;;;;;;;;3.41;100.00;98788.41;5085690;28;19935;-77
2021/11/29 09:25:58;;;;;;;;;;;;;;;3.58;100.00;98792.47;5084780;28;20437;-77
2021/11/29 09:28:26;;;;;;;;;;;;;;;3.52;100.00;98794.81;5103104;28;20268;-77
2021/11/29 09:30:54;;;;;;;;;;;;;;;4.39;100.00;98796.47;5088372;28;19935;-77
2021/11/29 09:33:21;;;;;;;;;;;;;;;4.78;100.00;98785.53;5105834;28;20355;-77
2021/11/29 09:35:49;;;;;;;;;;;;;;;5.05;100.00;98786.78;5106159;28;20424;-77
2021/11/29 09:38:16;;;;;;;;;;;;;;;5.26;100.00;98789.56;5107216;28;20679;-78
2021/11/29 09:40:43;;;;;;;;;;;;;;;5.54;100.00;98784.06;5106261;28;19931;-77
2021/11/29 09:43:12;;;;;;;;;;;;;;;5.52;100.00;98787.22;5106883;28;20412;-78
2021/11/29 09:45:40;;;;;;;;;;;;;;;5.72;100.00;98772.94;5107104;28;19928;-77
2021/11/29 09:48:09;;;;;;;;;;;;;;;5.71;100.00;98765.81;5106625;28;20276;-77
2021/11/29 09:50:38;;;;;;;;;;;;;;;6.02;100.00;98768.56;5106502;28;19940;-77
2021/11/29 09:53:06;;;;;;;;;;;;;;;5.67;100.00;98782.44;5107360;28;20029;-78
2021/11/29 09:55:36;;;;;;;;;;;;;;;5.09;100.00;98784.81;5091353;28;20031;-78
2021/11/29 09:58:04;;;;;;;;;;;;;;;4.79;100.00;98787.94;5088813;28;19936;-78
2021/11/29 10:00:36;;;;;;;;;;;;;;;4.75;100.00;98792.66;5036611;28;19930;-78
2021/11/29 10:03:04;;;;;;;;;;;;;;;4.76;100.00;98788.72;5074110;28;20062;-78
2021/11/29 10:05:34;;;;;;;;;;;;;;;5.28;100.00;98799.09;5074997;28;20026;-78
2021/11/29 10:08:38;;;;;;;;;;;;;;;4.84;100.00;98795.84;5058171;28;19931;-76
2021/11/29 10:11:19;;;;;;;;;;;;;;;5.05;100.00;98801.44;5030518;28;19925;-78
2021/11/29 10:13:50;;;;;;;;;;;;;;;5.11;100.00;98804.59;5014428;28;20361;-79
2021/11/29 10:16:32;;;;;;;;;;;;;;;5.26;100.00;98807.00;4998761;28;19925;-78
2021/11/29 10:19:00;;;;;;;;;;;;;;;5.14;100.00;98799.06;5014252;28;20477;-80
2021/11/29 10:21:28;;;;;;;;;;;;;;;5.40;100.00;98801.47;5031242;28;19936;-79
2021/11/29 10:23:58;;;;;;;;;;;;;;;5.28;100.00;98798.28;5030449;28;19972;-79
2021/11/29 10:26:34;;;;;;;;;;;;;;;5.26;100.00;98787.59;5014150;28;20036;-79
2021/11/29 10:29:06;;;;;;;;;;;;;;;5.53;100.00;98788.78;5030782;28;19932;-79
2021/11/29 10:31:44;;;;;;;;;;;;;;;5.78;100.00;98793.53;5013711;28;20047;-79
2021/11/29 10:34:12;;;;;;;;;;;;;;;6.13;100.00;98787.94;5013151;28;19925;-79
2021/11/29 10:36:42;;;;;;;;;;;;;;;6.32;100.00;98791.03;4995976;28;19925;-78
2021/11/29 10:39:11;;;;;;;;;;;;;;;6.40;100.00;98783.47;5012242;28;19932;-79
2021/11/29 10:41:40;;;;;;;;;;;;;;;6.42;100.00;98786.66;5029633;28;19925;-79
2021/11/29 10:44:12;;;;;;;;;;;;;;;6.30;100.00;98776.00;5038772;28;19936;-79
2021/11/29 10:46:42;;;;;;;;;;;;;;;6.57;100.00;98775.06;5095222;28;19924;-79
2021/11/29 10:49:12;;;;;;;;;;;;;;;6.00;100.00;98767.38;5057652;28;19931;-78
2021/11/29 10:51:44;;;;;;;;;;;;;;;6.06;100.00;98782.41;5093761;28;20379;-78
2021/11/29 10:54:21;;;;;;;;;;;;;;;6.28;100.00;98778.38;5076427;28;19924;-78
2021/11/29 10:56:49;;;;;;;;;;;;;;;6.33;100.00;98777.97;5097398;28;20469;-79
2021/11/29 10:59:18;;;;;;;;;;;;;;;6.29;100.00;98768.84;5074826;28;19931;-84
2021/11/29 11:01:59;;;;;;;;;;;;;;;6.53;100.00;98773.50;5073996;28;19924;-84
2021/11/29 11:04:29;;;;;;;;;;;;;;;6.70;100.00;98761.53;5057241;28;19979;-80
2021/11/29 11:06:58;;;;;;;;;;;;;;;6.33;100.00;98770.41;5056779;28;20466;-80
2021/11/29 11:09:25;;;;;;;;;;;;;;;5.82;100.00;98767.41;5092735;28;19931;-81
2021/11/29 11:12:00;;;;;;;;;;;;;;;5.58;100.00;98762.66;5073883;28;19924;-80
2021/11/29 11:14:29;;;;;;;;;;;;;;;5.81;100.00;98765.00;5074358;28;19971;-80
2021/11/29 11:17:04;;;;;;;;;;;;;;;5.97;100.00;98760.63;5074308;28;20010;-80
2021/11/29 11:24:18;;;;;;;;;;;;;;;6.07;100.00;98765.38;5067778;28;20284;-80
2021/11/29 11:26:47;;;;;;;;;;;;;;;6.32;100.00;98766.06;5037911;28;20653;-80
2021/11/29 11:32:48;;;;;;;;;;;;;;;6.31;100.00;98769.25;5070897;28;20375;-82
2021/11/29 11:35:22;;;;;;;;;;;;;;;6.56;100.00;98764.38;5083818;28;19925;-81
2021/11/29 11:37:50;;;;;;;;;;;;;;;6.69;100.00;98765.50;5023534;28;20495;-82
2021/11/29 11:40:22;;;;;;;;;;;;;;;6.23;100.00;98765.72;5074638;28;19924;-85
2021/11/29 11:42:50;;;;;;;;;;;;;;;6.19;100.00;98759.38;5023821;28;19925;-85
2021/11/29 11:45:18;;;;;;;;;;;;;;;6.31;100.00;98760.91;5038132;28;19969;-84
2021/11/29 11:47:46;;;;;;;;;;;;;;;6.12;100.00;98758.63;5055638;28;19925;-84
2021/11/29 11:50:15;;;;;;;;;;;;;;;5.83;100.00;98751.56;5072373;28;19925;-84
2021/11/29 11:52:43;;;;;;;;;;;;;;;5.77;100.00;98745.59;5039188;28;19924;-84
2021/11/29 11:55:13;;;;;;;;;;;;;;;6.06;100.00;98743.59;5039120;28;20391;-84
2021/11/29 11:57:56;;;;;;;;;;;;;;;5.74;100.00;98751.94;5057974;28;19932;-84
2021/11/29 12:00:23;;;;;;;;;;;;;;;5.66;100.00;98757.91;5072167;28;19924;-84
2021/11/29 12:03:04;;;;;;;;;;;;;;;5.63;100.00;98750.38;5055394;28;20392;-84
2021/11/29 12:05:34;;;;;;;;;;;;;;;5.60;100.00;98755.50;5073377;28;20027;-84
2021/11/29 12:08:26;;;;;;;;;;;;;;;5.42;100.00;98757.50;5039946;28;19931;-84
2021/11/29 12:10:54;;;;;;;;;;;;;;;5.90;100.00;98748.78;5055449;28;20311;-84
2021/11/29 12:13:22;;;;;;;;;;;;;;;5.76;100.00;98743.22;5022368;28;19924;-84
2021/11/29 12:15:55;;;;;;;;;;;;;;;5.50;100.00;98739.72;5038865;28;19973;-84
2021/11/29 12:18:55;;;;;;;;;;;;;;;5.13;100.00;98742.09;5054980;28;19925;-84
2021/11/29 12:21:26;;;;;;;;;;;;;;;5.59;100.00;98737.31;5006313;28;20330;-84
2021/11/29 12:24:02;;;;;;;;;;;;;;;5.25;100.00;98733.41;5038630;28;19925;-84
2021/11/29 12:26:42;;;;;;;;;;;;;;;5.23;100.00;98729.44;5072056;28;19975;-84
2021/11/29 12:29:38;;;;;;;;;;;;;;;5.44;100.00;98735.75;5072045;28;19924;-84
2021/11/29 12:32:08;;;;;;;;;;;;;;;5.36;100.00;98733.41;5017825;28;19928;-83
2021/11/29 12:34:51;;;;;;;;;;;;;;;5.28;100.00;98738.16;5071420;28;19935;-84
2021/11/29 12:37:20;;;;;;;;;;;;;;;5.49;100.00;98740.91;5055099;28;20350;-83
2021/11/29 12:39:49;;;;;;;;;;;;;;;5.84;100.00;98742.84;5055138;28;19925;-84
2021/11/29 12:52:07;;;;;;;;;;;;;;;6.35;100.00;98718.09;5053469;28;19928;-84
2021/11/29 12:54:34;;;;;;;;;;;;;;;6.22;100.00;98721.72;5034993;28;19925;-83
2021/11/29 12:57:17;;;;;;;;;;;;;;;6.29;100.00;98718.91;5034707;28;19924;-84
2021/11/29 12:59:55;;;;;;;;;;;;;;;6.40;100.00;98727.97;5051625;28;19924;-83
2021/11/29 13:02:42;;;;;;;;;;;;;;;6.71;100.00;98719.47;5068040;28;19929;-83
2021/11/29 13:05:25;;;;;;;;;;;;;;;6.31;100.00;98722.06;5052686;28;19968;-83
2021/11/29 13:08:02;;;;;;;;;;;;;;;6.29;100.00;98721.69;5018428;28;20362;-83
2021/11/29 13:10:49;;;;;;;;;;;;;;;6.96;100.00;98722.09;5018407;28;19931;-84
2021/11/29 13:13:23;;;;;;;;;;;;;;;7.03;100.00;98719.25;5051394;28;19931;-84
2021/11/29 13:15:51;;;;;;;;;;;;;;;6.96;100.00;98706.22;5068045;28;20403;-84
2021/11/29 13:18:39;;;;;;;;;;;;;;;7.49;100.00;98703.00;5051195;28;20391;-83